sensor_id;sensor_type;location;lat;lon;timestamp;temperature;humidity
23801;DHT22;12081;48.614;10.226;2022-11-15T00:00:30;6.10;99.90
23801;DHT22;12081;48.614;10.226;2022-11-15T00:03:15;6.10;99.90
23801;DHT22;12081;48.614;10.226;2022-11-15T00:06:06;6.10;99.90
23801;DHT22;12081;48.614;10.226;2022-11-15T00:08:50;6.10;99.90
23801;DHT22;12081;48.614;10.226;2022-11-15T00:11:34;7.10;99.90
23801;DHT22;12081;48.614;10.226;2022-11-15T00:14:18;6.10;99.90
23801;DHT22;12081;48.614;10.226;2022-11-15T00:17:02;6.10;99.90
23801;DHT22;12081;48.614;10.226;2022-11-15T00:19:46;6.00;99.90
23801;DHT22;12081;48.614;10.226;2022-11-15T00:22:33;6.00;99.90
23801;DHT22;12081;48.614;10.226;2022-11-15T00:25:18;6.00;99.90
23801;DHT22;12081;48.614;10.226;2022-11-15T00:28:02;6.00;99.90
23801;DHT22;12081;48.614;10.226;2022-11-15T00:30:47;6.00;99.90
23801;DHT22;12081;48.614;10.226;2022-11-15T00:33:31;5.90;99.90
23801;DHT22;12081;48.614;10.226;2022-11-15T00:36:16;6.10;99.90
23801;DHT22;12081;48.614;10.226;2022-11-15T00:39:00;5.90;99.90
23801;DHT22;12081;48.614;10.226;2022-11-15T00:41:44;5.90;99.90
23801;DHT22;12081;48.614;10.226;2022-11-15T00:44:29;5.80;99.90
23801;DHT22;12081;48.614;10.226;2022-11-15T00:47:13;5.80;99.90
23801;DHT22;12081;48.614;10.226;2022-11-15T00:49:57;5.80;99.90
23801;DHT22;12081;48.614;10.226;2022-11-15T00:52:41;5.80;99.90
23801;DHT22;12081;48.614;10.226;2022-11-15T00:55:25;5.80;99.90
23801;DHT22;12081;48.614;10.226;2022-11-15T00:58:10;5.80;99.90
23801;DHT22;12081;48.614;10.226;2022-11-15T01:00:54;6.80;99.90
23801;DHT22;12081;48.614;10.226;2022-11-15T01:03:39;6.00;99.90
23801;DHT22;12081;48.614;10.226;2022-11-15T01:06:24;5.70;99.90
23801;DHT22;12081;48.614;10.226;2022-11-15T01:09:08;5.60;99.90
23801;DHT22;12081;48.614;10.226;2022-11-15T01:11:52;5.60;99.90
23801;DHT22;12081;48.614;10.226;2022-11-15T01:14:36;5.60;99.90
23801;DHT22;12081;48.614;10.226;2022-11-15T01:17:20;5.50;99.90
23801;DHT22;12081;48.614;10.226;2022-11-15T01:20:05;5.50;99.90
23801;DHT22;12081;48.614;10.226;2022-11-15T01:22:49;5.50;99.90
23801;DHT22;12081;48.614;10.226;2022-11-15T01:25:33;5.40;99.90
23801;DHT22;12081;48.614;10.226;2022-11-15T01:28:17;5.40;99.90
23801;DHT22;12081;48.614;10.226;2022-11-15T01:31:02;5.30;99.90
23801;DHT22;12081;48.614;10.226;2022-11-15T01:33:48;5.30;99.90
23801;DHT22;12081;48.614;10.226;2022-11-15T01:36:32;5.20;99.90
23801;DHT22;12081;48.614;10.226;2022-11-15T01:39:16;5.30;99.90
23801;DHT22;12081;48.614;10.226;2022-11-15T01:42:01;6.30;99.90
23801;DHT22;12081;48.614;10.226;2022-11-15T01:44:50;5.20;99.90
23801;DHT22;12081;48.614;10.226;2022-11-15T01:47:37;5.50;99.90
23801;DHT22;12081;48.614;10.226;2022-11-15T01:50:27;6.00;99.90
23801;DHT22;12081;48.614;10.226;2022-11-15T01:53:13;5.20;99.90
23801;DHT22;12081;48.614;10.226;2022-11-15T01:55:58;5.20;99.90
23801;DHT22;12081;48.614;10.226;2022-11-15T01:58:43;5.20;99.90
23801;DHT22;12081;48.614;10.226;2022-11-15T02:01:29;5.10;99.90
23801;DHT22;12081;48.614;10.226;2022-11-15T02:04:27;5.10;99.90
23801;DHT22;12081;48.614;10.226;2022-11-15T02:07:15;5.10;99.90
23801;DHT22;12081;48.614;10.226;2022-11-15T02:10:07;5.20;99.90
23801;DHT22;12081;48.614;10.226;2022-11-15T02:12:52;5.30;99.90
23801;DHT22;12081;48.614;10.226;2022-11-15T02:15:43;5.20;99.90
23801;DHT22;12081;48.614;10.226;2022-11-15T02:18:37;5.10;99.90
23801;DHT22;12081;48.614;10.226;2022-11-15T02:21:37;5.00;99.90
23801;DHT22;12081;48.614;10.226;2022-11-15T02:34:33;4.80;99.90
23801;DHT22;12081;48.614;10.226;2022-11-15T02:43:28;4.60;99.90
23801;DHT22;12081;48.614;10.226;2022-11-15T02:46:34;4.50;99.90
23801;DHT22;12081;48.614;10.226;2022-11-15T02:49:51;4.40;99.90
23801;DHT22;12081;48.614;10.226;2022-11-15T02:52:35;4.40;99.90
23801;DHT22;12081;48.614;10.226;2022-11-15T02:55:31;4.30;99.90
23801;DHT22;12081;48.614;10.226;2022-11-15T03:05:16;4.10;99.90
23801;DHT22;12081;48.614;10.226;2022-11-15T03:08:17;5.60;99.90
23801;DHT22;12081;48.614;10.226;2022-11-15T03:11:15;3.90;99.90
23801;DHT22;12081;48.614;10.226;2022-11-15T03:17:09;3.70;99.90
23801;DHT22;12081;48.614;10.226;2022-11-15T03:20:00;3.90;99.90
23801;DHT22;12081;48.614;10.226;2022-11-15T03:22:47;6.40;99.90
23801;DHT22;12081;48.614;10.226;2022-11-15T03:25:34;5.30;99.90
23801;DHT22;12081;48.614;10.226;2022-11-15T03:28:25;5.30;99.90
23801;DHT22;12081;48.614;10.226;2022-11-15T03:31:14;5.30;99.90
23801;DHT22;12081;48.614;10.226;2022-11-15T03:34:29;3.80;99.90
23801;DHT22;12081;48.614;10.226;2022-11-15T03:37:16;5.80;99.90
23801;DHT22;12081;48.614;10.226;2022-11-15T03:40:02;5.80;99.90
23801;DHT22;12081;48.614;10.226;2022-11-15T03:43:30;6.10;99.90
23801;DHT22;12081;48.614;10.226;2022-11-15T03:46:21;3.60;99.90
23801;DHT22;12081;48.614;10.226;2022-11-15T03:49:27;5.40;99.90
23801;DHT22;12081;48.614;10.226;2022-11-15T03:52:12;5.00;99.90
23801;DHT22;12081;48.614;10.226;2022-11-15T03:54:57;3.00;99.90
23801;DHT22;12081;48.614;10.226;2022-11-15T03:57:44;5.50;99.90
23801;DHT22;12081;48.614;10.226;2022-11-15T04:00:29;4.50;99.90
23801;DHT22;12081;48.614;10.226;2022-11-15T04:03:13;5.10;99.90
23801;DHT22;12081;48.614;10.226;2022-11-15T04:05:57;4.40;99.90
23801;DHT22;12081;48.614;10.226;2022-11-15T04:08:42;3.00;99.90
23801;DHT22;12081;48.614;10.226;2022-11-15T04:11:26;4.70;99.90
23801;DHT22;12081;48.614;10.226;2022-11-15T04:14:10;4.20;99.90
23801;DHT22;12081;48.614;10.226;2022-11-15T04:16:54;4.60;99.90
23801;DHT22;12081;48.614;10.226;2022-11-15T04:19:38;4.30;99.90
23801;DHT22;12081;48.614;10.226;2022-11-15T04:22:41;3.10;99.90
23801;DHT22;12081;48.614;10.226;2022-11-15T04:25:44;4.20;99.90
23801;DHT22;12081;48.614;10.226;2022-11-15T04:28:30;4.80;99.90
23801;DHT22;12081;48.614;10.226;2022-11-15T04:31:14;2.90;99.90
23801;DHT22;12081;48.614;10.226;2022-11-15T04:33:58;5.00;99.90
23801;DHT22;12081;48.614;10.226;2022-11-15T04:36:42;4.10;99.90
23801;DHT22;12081;48.614;10.226;2022-11-15T04:39:46;3.70;99.90
23801;DHT22;12081;48.614;10.226;2022-11-15T04:42:30;3.30;99.90
23801;DHT22;12081;48.614;10.226;2022-11-15T04:45:14;3.90;99.90
23801;DHT22;12081;48.614;10.226;2022-11-15T04:47:58;4.30;99.90
23801;DHT22;12081;48.614;10.226;2022-11-15T04:50:42;4.40;99.90
23801;DHT22;12081;48.614;10.226;2022-11-15T04:53:27;3.90;99.90
23801;DHT22;12081;48.614;10.226;2022-11-15T04:56:11;4.20;99.90
23801;DHT22;12081;48.614;10.226;2022-11-15T04:58:55;3.60;99.90
23801;DHT22;12081;48.614;10.226;2022-11-15T05:01:39;4.10;99.90
23801;DHT22;12081;48.614;10.226;2022-11-15T05:04:23;3.80;99.90
23801;DHT22;12081;48.614;10.226;2022-11-15T05:07:07;3.70;99.90
23801;DHT22;12081;48.614;10.226;2022-11-15T05:09:51;4.10;99.90
23801;DHT22;12081;48.614;10.226;2022-11-15T05:12:53;4.10;99.90
23801;DHT22;12081;48.614;10.226;2022-11-15T05:20:46;2.90;99.90
23801;DHT22;12081;48.614;10.226;2022-11-15T05:23:31;4.90;99.90
23801;DHT22;12081;48.614;10.226;2022-11-15T05:26:16;5.00;99.90
23801;DHT22;12081;48.614;10.226;2022-11-15T05:29:01;5.50;99.90
23801;DHT22;12081;48.614;10.226;2022-11-15T05:31:46;5.20;99.90
23801;DHT22;12081;48.614;10.226;2022-11-15T05:34:31;5.20;99.90
23801;DHT22;12081;48.614;10.226;2022-11-15T05:37:16;4.80;99.90
23801;DHT22;12081;48.614;10.226;2022-11-15T05:42:34;3.30;99.90
23801;DHT22;12081;48.614;10.226;2022-11-15T05:45:19;5.00;99.90
23801;DHT22;12081;48.614;10.226;2022-11-15T05:48:09;5.70;99.90
23801;DHT22;12081;48.614;10.226;2022-11-15T05:50:54;4.40;99.90
23801;DHT22;12081;48.614;10.226;2022-11-15T05:53:38;4.90;99.90
23801;DHT22;12081;48.614;10.226;2022-11-15T05:56:24;5.80;99.90
23801;DHT22;12081;48.614;10.226;2022-11-15T05:59:18;5.30;99.90
23801;DHT22;12081;48.614;10.226;2022-11-15T06:02:02;4.70;99.90
23801;DHT22;12081;48.614;10.226;2022-11-15T06:04:47;5.40;99.90
23801;DHT22;12081;48.614;10.226;2022-11-15T06:07:31;5.30;99.90
23801;DHT22;12081;48.614;10.226;2022-11-15T06:10:16;5.30;99.90
23801;DHT22;12081;48.614;10.226;2022-11-15T06:13:02;3.40;99.90
23801;DHT22;12081;48.614;10.226;2022-11-15T06:15:46;5.80;99.90
23801;DHT22;12081;48.614;10.226;2022-11-15T06:18:34;5.70;99.90
23801;DHT22;12081;48.614;10.226;2022-11-15T06:21:19;5.10;99.90
23801;DHT22;12081;48.614;10.226;2022-11-15T06:24:04;5.90;99.90
23801;DHT22;12081;48.614;10.226;2022-11-15T06:26:49;3.50;99.90
23801;DHT22;12081;48.614;10.226;2022-11-15T06:29:33;5.10;99.90
23801;DHT22;12081;48.614;10.226;2022-11-15T06:32:18;6.00;99.90
23801;DHT22;12081;48.614;10.226;2022-11-15T06:35:03;5.90;99.90
23801;DHT22;12081;48.614;10.226;2022-11-15T06:37:47;3.70;99.90
23801;DHT22;12081;48.614;10.226;2022-11-15T06:40:34;5.90;99.90
23801;DHT22;12081;48.614;10.226;2022-11-15T06:43:19;5.80;99.90
23801;DHT22;12081;48.614;10.226;2022-11-15T06:46:04;5.70;99.90
23801;DHT22;12081;48.614;10.226;2022-11-15T06:48:51;4.00;99.90
23801;DHT22;12081;48.614;10.226;2022-11-15T06:51:36;5.40;99.90
23801;DHT22;12081;48.614;10.226;2022-11-15T06:54:20;6.20;99.90
23801;DHT22;12081;48.614;10.226;2022-11-15T06:57:05;6.10;99.90
23801;DHT22;12081;48.614;10.226;2022-11-15T06:59:49;6.50;99.90
23801;DHT22;12081;48.614;10.226;2022-11-15T07:02:33;6.60;99.90
23801;DHT22;12081;48.614;10.226;2022-11-15T07:05:17;5.70;99.90
23801;DHT22;12081;48.614;10.226;2022-11-15T07:08:02;4.70;99.90
23801;DHT22;12081;48.614;10.226;2022-11-15T07:10:46;7.30;99.90
23801;DHT22;12081;48.614;10.226;2022-11-15T07:13:31;7.50;99.90
23801;DHT22;12081;48.614;10.226;2022-11-15T07:16:20;8.40;99.90
23801;DHT22;12081;48.614;10.226;2022-11-15T07:19:04;8.40;99.90
23801;DHT22;12081;48.614;10.226;2022-11-15T07:21:48;10.80;99.90
23801;DHT22;12081;48.614;10.226;2022-11-15T07:24:32;11.70;99.90
23801;DHT22;12081;48.614;10.226;2022-11-15T07:27:16;12.00;99.90
23801;DHT22;12081;48.614;10.226;2022-11-15T07:30:01;12.90;99.90
23801;DHT22;12081;48.614;10.226;2022-11-15T07:32:45;13.90;99.90
23801;DHT22;12081;48.614;10.226;2022-11-15T07:35:30;15.00;99.90
23801;DHT22;12081;48.614;10.226;2022-11-15T07:40:43;17.10;94.80
23801;DHT22;12081;48.614;10.226;2022-11-15T07:43:28;17.60;91.10
23801;DHT22;12081;48.614;10.226;2022-11-15T07:46:13;18.20;87.90
23801;DHT22;12081;48.614;10.226;2022-11-15T07:48:57;18.80;81.40
23801;DHT22;12081;48.614;10.226;2022-11-15T07:51:41;19.50;75.10
23801;DHT22;12081;48.614;10.226;2022-11-15T07:54:25;19.80;72.70
23801;DHT22;12081;48.614;10.226;2022-11-15T07:57:09;20.00;68.60
23801;DHT22;12081;48.614;10.226;2022-11-15T07:59:53;20.50;67.30
23801;DHT22;12081;48.614;10.226;2022-11-15T08:02:38;21.00;63.20
23801;DHT22;12081;48.614;10.226;2022-11-15T08:05:22;21.30;61.70
23801;DHT22;12081;48.614;10.226;2022-11-15T08:08:08;21.70;59.60
23801;DHT22;12081;48.614;10.226;2022-11-15T08:10:52;22.10;59.30
23801;DHT22;12081;48.614;10.226;2022-11-15T08:13:38;22.10;58.80
23801;DHT22;12081;48.614;10.226;2022-11-15T08:16:22;21.50;59.60
23801;DHT22;12081;48.614;10.226;2022-11-15T08:19:06;21.00;59.70
23801;DHT22;12081;48.614;10.226;2022-11-15T08:21:50;21.40;61.80
23801;DHT22;12081;48.614;10.226;2022-11-15T08:24:34;20.80;61.90
23801;DHT22;12081;48.614;10.226;2022-11-15T08:27:18;19.80;61.70
23801;DHT22;12081;48.614;10.226;2022-11-15T08:30:03;19.50;62.50
23801;DHT22;12081;48.614;10.226;2022-11-15T08:32:48;19.40;62.60
23801;DHT22;12081;48.614;10.226;2022-11-15T08:35:32;19.00;64.20
23801;DHT22;12081;48.614;10.226;2022-11-15T08:38:16;19.00;64.80
23801;DHT22;12081;48.614;10.226;2022-11-15T08:41:02;19.50;63.10
23801;DHT22;12081;48.614;10.226;2022-11-15T08:43:46;20.20;61.40
23801;DHT22;12081;48.614;10.226;2022-11-15T08:46:30;21.10;60.30
23801;DHT22;12081;48.614;10.226;2022-11-15T08:49:14;20.40;59.70
23801;DHT22;12081;48.614;10.226;2022-11-15T08:51:58;20.10;59.70
23801;DHT22;12081;48.614;10.226;2022-11-15T08:54:43;20.00;62.00
23801;DHT22;12081;48.614;10.226;2022-11-15T08:57:29;20.40;60.00
23801;DHT22;12081;48.614;10.226;2022-11-15T09:00:14;20.60;59.60
23801;DHT22;12081;48.614;10.226;2022-11-15T09:02:59;21.00;59.10
23801;DHT22;12081;48.614;10.226;2022-11-15T09:05:43;21.80;57.70
23801;DHT22;12081;48.614;10.226;2022-11-15T09:08:30;22.30;57.20
23801;DHT22;12081;48.614;10.226;2022-11-15T09:11:15;22.70;55.30
23801;DHT22;12081;48.614;10.226;2022-11-15T09:14:01;20.40;54.90
23801;DHT22;12081;48.614;10.226;2022-11-15T09:16:47;23.20;55.10
23801;DHT22;12081;48.614;10.226;2022-11-15T09:19:32;23.50;53.60
23801;DHT22;12081;48.614;10.226;2022-11-15T09:22:16;24.00;53.50
23801;DHT22;12081;48.614;10.226;2022-11-15T09:25:00;24.60;51.30
23801;DHT22;12081;48.614;10.226;2022-11-15T09:27:44;25.20;50.10
23801;DHT22;12081;48.614;10.226;2022-11-15T09:30:29;26.10;49.20
23801;DHT22;12081;48.614;10.226;2022-11-15T09:33:14;26.50;48.20
23801;DHT22;12081;48.614;10.226;2022-11-15T09:36:04;26.80;46.90
23801;DHT22;12081;48.614;10.226;2022-11-15T09:38:49;27.20;46.30
23801;DHT22;12081;48.614;10.226;2022-11-15T09:50:47;26.50;46.40
23801;DHT22;12081;48.614;10.226;2022-11-15T09:53:43;26.30;46.80
23801;DHT22;12081;48.614;10.226;2022-11-15T09:56:36;26.30;46.50
23801;DHT22;12081;48.614;10.226;2022-11-15T11:15:13;23.60;49.20
23801;DHT22;12081;48.614;10.226;2022-11-15T11:18:07;24.60;46.80
23801;DHT22;12081;48.614;10.226;2022-11-15T11:21:09;25.20;45.50
23801;DHT22;12081;48.614;10.226;2022-11-15T11:24:08;26.40;45.60
23801;DHT22;12081;48.614;10.226;2022-11-15T11:33:21;24.80;45.60
23801;DHT22;12081;48.614;10.226;2022-11-15T11:36:26;24.90;45.70
23801;DHT22;12081;48.614;10.226;2022-11-15T11:39:31;25.50;44.90
23801;DHT22;12081;48.614;10.226;2022-11-15T11:48:43;27.70;42.80
23801;DHT22;12081;48.614;10.226;2022-11-15T11:51:34;28.30;41.70
23801;DHT22;12081;48.614;10.226;2022-11-15T11:54:34;28.70;40.60
23801;DHT22;12081;48.614;10.226;2022-11-15T11:58:02;28.90;39.70
23801;DHT22;12081;48.614;10.226;2022-11-15T12:04:38;28.60;39.70
23801;DHT22;12081;48.614;10.226;2022-11-15T12:07:27;28.30;39.80
23801;DHT22;12081;48.614;10.226;2022-11-15T12:10:22;28.10;39.70
23801;DHT22;12081;48.614;10.226;2022-11-15T12:13:13;27.90;39.50
23801;DHT22;12081;48.614;10.226;2022-11-15T12:16:14;27.60;38.80
23801;DHT22;12081;48.614;10.226;2022-11-15T12:19:03;27.50;38.90
23801;DHT22;12081;48.614;10.226;2022-11-15T12:25:08;26.70;39.20
23801;DHT22;12081;48.614;10.226;2022-11-15T12:28:19;26.30;39.60
23801;DHT22;12081;48.614;10.226;2022-11-15T12:31:19;26.00;38.50
23801;DHT22;12081;48.614;10.226;2022-11-15T12:40:35;23.30;43.20
23801;DHT22;12081;48.614;10.226;2022-11-15T12:43:37;22.40;44.50
23801;DHT22;12081;48.614;10.226;2022-11-15T12:52:12;20.10;49.60
23801;DHT22;12081;48.614;10.226;2022-11-15T12:54:59;19.60;51.20
23801;DHT22;12081;48.614;10.226;2022-11-15T13:15:59;19.00;53.70
23801;DHT22;12081;48.614;10.226;2022-11-15T13:18:53;18.50;55.20
23801;DHT22;12081;48.614;10.226;2022-11-15T13:21:49;18.00;56.90
23801;DHT22;12081;48.614;10.226;2022-11-15T13:24:52;17.50;58.30
23801;DHT22;12081;48.614;10.226;2022-11-15T13:27:36;17.20;59.70
23801;DHT22;12081;48.614;10.226;2022-11-15T13:30:28;16.70;62.60
23801;DHT22;12081;48.614;10.226;2022-11-15T13:33:36;16.80;64.00
23801;DHT22;12081;48.614;10.226;2022-11-15T13:36:28;16.00;65.30
23801;DHT22;12081;48.614;10.226;2022-11-15T13:55:31;13.90;91.10
23801;DHT22;12081;48.614;10.226;2022-11-15T13:58:01;13.60;93.30
23801;DHT22;12081;48.614;10.226;2022-11-15T14:01:01;13.50;95.90
23801;DHT22;12081;48.614;10.226;2022-11-15T14:03:57;13.30;97.90
23801;DHT22;12081;48.614;10.226;2022-11-15T14:06:48;13.20;99.30
23801;DHT22;12081;48.614;10.226;2022-11-15T14:09:38;13.10;99.90
23801;DHT22;12081;48.614;10.226;2022-11-15T14:22:17;12.90;99.90
23801;DHT22;12081;48.614;10.226;2022-11-15T14:25:51;12.60;99.90
23801;DHT22;12081;48.614;10.226;2022-11-15T14:31:12;12.50;99.90
23801;DHT22;12081;48.614;10.226;2022-11-15T14:33:59;12.10;99.90
23801;DHT22;12081;48.614;10.226;2022-11-15T14:36:43;11.90;99.90
23801;DHT22;12081;48.614;10.226;2022-11-15T14:39:28;11.70;99.90
23801;DHT22;12081;48.614;10.226;2022-11-15T14:42:13;11.60;99.90
23801;DHT22;12081;48.614;10.226;2022-11-15T14:44:58;11.50;99.90
23801;DHT22;12081;48.614;10.226;2022-11-15T14:47:43;11.70;99.90
23801;DHT22;12081;48.614;10.226;2022-11-15T14:50:27;11.20;99.90
23801;DHT22;12081;48.614;10.226;2022-11-15T14:53:17;11.00;99.90
23801;DHT22;12081;48.614;10.226;2022-11-15T14:56:02;11.10;99.90
23801;DHT22;12081;48.614;10.226;2022-11-15T14:58:47;10.70;99.90
23801;DHT22;12081;48.614;10.226;2022-11-15T15:01:31;10.60;99.90
23801;DHT22;12081;48.614;10.226;2022-11-15T15:04:16;10.50;99.90
23801;DHT22;12081;48.614;10.226;2022-11-15T15:07:00;10.40;99.90
23801;DHT22;12081;48.614;10.226;2022-11-15T15:09:46;10.30;99.90
23801;DHT22;12081;48.614;10.226;2022-11-15T15:12:30;10.30;99.90
23801;DHT22;12081;48.614;10.226;2022-11-15T15:15:19;10.20;99.90
23801;DHT22;12081;48.614;10.226;2022-11-15T15:18:05;10.20;99.90
23801;DHT22;12081;48.614;10.226;2022-11-15T15:20:56;10.20;99.90
23801;DHT22;12081;48.614;10.226;2022-11-15T15:23:43;10.20;99.90
23801;DHT22;12081;48.614;10.226;2022-11-15T15:26:28;10.20;99.90
23801;DHT22;12081;48.614;10.226;2022-11-15T15:29:12;10.10;99.90
23801;DHT22;12081;48.614;10.226;2022-11-15T15:31:57;10.10;99.90
23801;DHT22;12081;48.614;10.226;2022-11-15T15:34:42;10.00;99.90
23801;DHT22;12081;48.614;10.226;2022-11-15T15:37:26;10.00;99.90
23801;DHT22;12081;48.614;10.226;2022-11-15T15:40:15;10.00;99.90
23801;DHT22;12081;48.614;10.226;2022-11-15T15:43:00;9.90;99.90
23801;DHT22;12081;48.614;10.226;2022-11-15T15:45:44;9.90;99.90
23801;DHT22;12081;48.614;10.226;2022-11-15T15:48:29;9.80;99.90
23801;DHT22;12081;48.614;10.226;2022-11-15T15:51:14;9.80;99.90
23801;DHT22;12081;48.614;10.226;2022-11-15T15:53:58;9.70;99.90
23801;DHT22;12081;48.614;10.226;2022-11-15T15:56:42;9.60;99.90
23801;DHT22;12081;48.614;10.226;2022-11-15T15:59:27;9.60;99.90
23801;DHT22;12081;48.614;10.226;2022-11-15T16:02:14;9.60;99.90
23801;DHT22;12081;48.614;10.226;2022-11-15T16:04:58;9.60;99.90
23801;DHT22;12081;48.614;10.226;2022-11-15T16:07:43;9.40;99.90
23801;DHT22;12081;48.614;10.226;2022-11-15T16:10:31;9.40;99.90
23801;DHT22;12081;48.614;10.226;2022-11-15T16:13:16;10.20;99.90
23801;DHT22;12081;48.614;10.226;2022-11-15T16:16:01;9.60;99.90
23801;DHT22;12081;48.614;10.226;2022-11-15T16:18:46;9.30;99.90
23801;DHT22;12081;48.614;10.226;2022-11-15T16:21:31;9.30;99.90
23801;DHT22;12081;48.614;10.226;2022-11-15T16:24:15;9.30;99.90
23801;DHT22;12081;48.614;10.226;2022-11-15T16:27:00;9.30;99.90
23801;DHT22;12081;48.614;10.226;2022-11-15T16:29:45;9.30;99.90
23801;DHT22;12081;48.614;10.226;2022-11-15T16:32:29;9.20;99.90
23801;DHT22;12081;48.614;10.226;2022-11-15T16:35:15;9.20;99.90
23801;DHT22;12081;48.614;10.226;2022-11-15T16:37:59;9.10;99.90
23801;DHT22;12081;48.614;10.226;2022-11-15T16:40:45;9.10;99.90
23801;DHT22;12081;48.614;10.226;2022-11-15T16:43:29;9.10;99.90
23801;DHT22;12081;48.614;10.226;2022-11-15T16:46:24;9.00;99.90
23801;DHT22;12081;48.614;10.226;2022-11-15T16:49:12;10.30;99.90
23801;DHT22;12081;48.614;10.226;2022-11-15T16:51:57;8.90;99.90
23801;DHT22;12081;48.614;10.226;2022-11-15T16:54:42;8.90;99.90
23801;DHT22;12081;48.614;10.226;2022-11-15T16:57:27;8.90;99.90
23801;DHT22;12081;48.614;10.226;2022-11-15T17:00:12;8.80;99.90
23801;DHT22;12081;48.614;10.226;2022-11-15T17:02:59;8.90;99.90
23801;DHT22;12081;48.614;10.226;2022-11-15T17:05:44;8.90;99.90
23801;DHT22;12081;48.614;10.226;2022-11-15T17:08:28;8.90;99.90
23801;DHT22;12081;48.614;10.226;2022-11-15T17:11:15;9.20;99.90
23801;DHT22;12081;48.614;10.226;2022-11-15T17:17:42;8.70;99.90
23801;DHT22;12081;48.614;10.226;2022-11-15T17:20:27;8.70;99.90
23801;DHT22;12081;48.614;10.226;2022-11-15T17:23:12;8.70;99.90
23801;DHT22;12081;48.614;10.226;2022-11-15T17:26:01;8.60;99.90
23801;DHT22;12081;48.614;10.226;2022-11-15T17:28:48;8.60;99.90
23801;DHT22;12081;48.614;10.226;2022-11-15T17:31:37;8.50;99.90
23801;DHT22;12081;48.614;10.226;2022-11-15T17:34:22;8.50;99.90
23801;DHT22;12081;48.614;10.226;2022-11-15T17:37:06;8.50;99.90
23801;DHT22;12081;48.614;10.226;2022-11-15T17:39:51;8.60;99.90
23801;DHT22;12081;48.614;10.226;2022-11-15T17:42:36;8.30;99.90
23801;DHT22;12081;48.614;10.226;2022-11-15T17:45:20;8.30;99.90
23801;DHT22;12081;48.614;10.226;2022-11-15T17:48:05;8.60;99.90
23801;DHT22;12081;48.614;10.226;2022-11-15T17:50:59;8.30;99.90
23801;DHT22;12081;48.614;10.226;2022-11-15T17:57:25;8.20;99.90
23801;DHT22;12081;48.614;10.226;2022-11-15T18:00:10;8.20;99.90
23801;DHT22;12081;48.614;10.226;2022-11-15T18:02:55;8.20;99.90
23801;DHT22;12081;48.614;10.226;2022-11-15T18:05:40;8.10;99.90
23801;DHT22;12081;48.614;10.226;2022-11-15T18:08:28;8.80;99.90
23801;DHT22;12081;48.614;10.226;2022-11-15T18:11:24;7.90;99.90
23801;DHT22;12081;48.614;10.226;2022-11-15T18:14:13;7.80;99.90
23801;DHT22;12081;48.614;10.226;2022-11-15T18:16:58;7.80;99.90
23801;DHT22;12081;48.614;10.226;2022-11-15T18:19:43;7.70;99.90
23801;DHT22;12081;48.614;10.226;2022-11-15T18:22:27;7.60;99.90
23801;DHT22;12081;48.614;10.226;2022-11-15T18:25:12;7.50;99.90
23801;DHT22;12081;48.614;10.226;2022-11-15T18:27:59;7.50;99.90
23801;DHT22;12081;48.614;10.226;2022-11-15T18:30:43;7.60;99.90
23801;DHT22;12081;48.614;10.226;2022-11-15T18:33:31;7.60;99.90
23801;DHT22;12081;48.614;10.226;2022-11-15T18:36:20;7.60;99.90
23801;DHT22;12081;48.614;10.226;2022-11-15T18:39:06;7.60;99.90
23801;DHT22;12081;48.614;10.226;2022-11-15T18:41:50;7.70;99.90
23801;DHT22;12081;48.614;10.226;2022-11-15T18:44:35;7.80;99.90
23801;DHT22;12081;48.614;10.226;2022-11-15T18:47:19;7.70;99.90
23801;DHT22;12081;48.614;10.226;2022-11-15T18:50:04;7.70;99.90
23801;DHT22;12081;48.614;10.226;2022-11-15T18:52:49;7.60;99.90
23801;DHT22;12081;48.614;10.226;2022-11-15T18:55:33;7.50;99.90
23801;DHT22;12081;48.614;10.226;2022-11-15T18:58:18;7.50;99.90
23801;DHT22;12081;48.614;10.226;2022-11-15T19:01:14;7.70;99.90
23801;DHT22;12081;48.614;10.226;2022-11-15T19:04:00;7.50;99.90
23801;DHT22;12081;48.614;10.226;2022-11-15T19:06:48;7.50;99.90
23801;DHT22;12081;48.614;10.226;2022-11-15T19:09:34;7.40;99.90
23801;DHT22;12081;48.614;10.226;2022-11-15T19:12:18;7.30;99.90
23801;DHT22;12081;48.614;10.226;2022-11-15T19:15:03;7.30;99.90
23801;DHT22;12081;48.614;10.226;2022-11-15T19:17:48;7.30;99.90
23801;DHT22;12081;48.614;10.226;2022-11-15T19:20:34;7.30;99.90
23801;DHT22;12081;48.614;10.226;2022-11-15T19:23:19;7.30;99.90
23801;DHT22;12081;48.614;10.226;2022-11-15T19:26:08;7.20;99.90
23801;DHT22;12081;48.614;10.226;2022-11-15T19:28:58;7.20;99.90
23801;DHT22;12081;48.614;10.226;2022-11-15T19:31:43;7.20;99.90
23801;DHT22;12081;48.614;10.226;2022-11-15T19:34:28;7.20;99.90
23801;DHT22;12081;48.614;10.226;2022-11-15T19:37:12;7.20;99.90
23801;DHT22;12081;48.614;10.226;2022-11-15T19:39:57;7.20;99.90
23801;DHT22;12081;48.614;10.226;2022-11-15T19:42:41;7.10;99.90
23801;DHT22;12081;48.614;10.226;2022-11-15T19:45:26;7.20;99.90
23801;DHT22;12081;48.614;10.226;2022-11-15T19:48:10;7.60;99.90
23801;DHT22;12081;48.614;10.226;2022-11-15T19:54:36;7.20;99.90
23801;DHT22;12081;48.614;10.226;2022-11-15T19:57:20;7.30;99.90
23801;DHT22;12081;48.614;10.226;2022-11-15T20:00:05;7.30;99.90
23801;DHT22;12081;48.614;10.226;2022-11-15T20:02:49;7.40;99.90
23801;DHT22;12081;48.614;10.226;2022-11-15T20:05:34;7.40;99.90
23801;DHT22;12081;48.614;10.226;2022-11-15T20:08:18;7.50;99.90
23801;DHT22;12081;48.614;10.226;2022-11-15T20:11:04;8.30;99.90
23801;DHT22;12081;48.614;10.226;2022-11-15T20:13:49;7.40;99.90
23801;DHT22;12081;48.614;10.226;2022-11-15T20:16:34;7.60;99.90
23801;DHT22;12081;48.614;10.226;2022-11-15T20:19:18;7.40;99.90
23801;DHT22;12081;48.614;10.226;2022-11-15T20:22:03;7.40;99.90
23801;DHT22;12081;48.614;10.226;2022-11-15T20:24:47;7.40;99.90
23801;DHT22;12081;48.614;10.226;2022-11-15T20:27:32;7.80;99.90
23801;DHT22;12081;48.614;10.226;2022-11-15T20:30:17;7.30;99.90
23801;DHT22;12081;48.614;10.226;2022-11-15T20:33:01;8.10;99.90
23801;DHT22;12081;48.614;10.226;2022-11-15T20:35:46;7.30;99.90
23801;DHT22;12081;48.614;10.226;2022-11-15T20:38:30;7.60;99.90
23801;DHT22;12081;48.614;10.226;2022-11-15T20:41:15;7.30;99.90
23801;DHT22;12081;48.614;10.226;2022-11-15T20:43:59;7.30;99.90
23801;DHT22;12081;48.614;10.226;2022-11-15T20:46:45;7.40;99.90
23801;DHT22;12081;48.614;10.226;2022-11-15T20:49:30;7.40;99.90
23801;DHT22;12081;48.614;10.226;2022-11-15T20:52:15;7.40;99.90
23801;DHT22;12081;48.614;10.226;2022-11-15T20:54:59;7.30;99.90
23801;DHT22;12081;48.614;10.226;2022-11-15T20:57:44;7.30;99.90
23801;DHT22;12081;48.614;10.226;2022-11-15T21:00:29;7.70;99.90